Time;durP1;ratioP1;P1;durP2;ratioP2;P2;SDS_P1;SDS_P2;PMS_P1;PMS_P2;Temp;Humidity;BMP_temperature;BMP_pressure;BME280_temperature;BME280_humidity;BME280_pressure;Samples;Min_cycle;Max_cycle;Signal;HPM_P1;HPM_P2
2022/09/06 00:01:13;;;;;;;4.20;2.65;;;19.50;99.90;;;;;;4955168;28;20112;-79
2022/09/06 00:03:39;;;;;;;4.68;3.15;;;19.50;99.90;;;;;;4971335;28;20046;-79
2022/09/06 00:06:07;;;;;;;5.53;3.15;;;19.50;99.90;;;;;;5014809;28;20039;-79
2022/09/06 00:08:33;;;;;;;3.30;2.97;;;19.50;99.90;;;;;;4990796;28;20049;-78
2022/09/06 00:10:59;;;;;;;4.30;3.30;;;19.50;99.90;;;;;;4991748;28;20046;-78
2022/09/06 00:13:24;;;;;;;5.57;3.78;;;19.40;99.90;;;;;;4993668;28;20038;-78
2022/09/06 00:15:50;;;;;;;3.28;2.95;;;19.40;99.90;;;;;;4993716;28;20050;-79
2022/09/06 00:18:16;;;;;;;3.92;3.47;;;19.30;99.90;;;;;;4993289;28;20108;-78
2022/09/06 00:20:41;;;;;;;5.25;3.58;;;19.30;99.90;;;;;;5003351;28;20090;-78
2022/09/06 00:23:07;;;;;;;3.53;3.25;;;19.30;99.90;;;;;;5013228;28;20057;-79
2022/09/06 00:25:33;;;;;;;6.90;3.58;;;19.20;99.90;;;;;;5012919;28;20053;-78
2022/09/06 00:28:01;;;;;;;5.43;3.85;;;19.20;99.90;;;;;;5013294;28;20034;-78
2022/09/06 00:30:28;;;;;;;3.60;3.25;;;19.20;99.90;;;;;;5012893;28;20041;-78
2022/09/06 00:32:54;;;;;;;7.63;3.58;;;19.20;99.90;;;;;;5005589;28;20507;-78
2022/09/06 00:35:22;;;;;;;4.72;3.55;;;19.20;99.90;;;;;;5004599;28;20033;-79
2022/09/06 00:37:47;;;;;;;4.50;2.88;;;19.10;99.90;;;;;;4979463;28;20438;-78
2022/09/06 00:40:13;;;;;;;5.13;3.55;;;19.10;99.90;;;;;;4973707;28;20049;-78
2022/09/06 00:42:39;;;;;;;4.22;3.70;;;19.10;99.90;;;;;;5006410;28;20084;-79
2022/09/06 00:45:06;;;;;;;4.28;3.78;;;19.10;99.90;;;;;;5006426;28;20050;-78
2022/09/06 00:47:34;;;;;;;4.50;3.92;;;19.00;99.90;;;;;;4993046;28;20051;-78
2022/09/06 00:50:01;;;;;;;3.85;3.13;;;19.00;99.90;;;;;;5002854;28;20449;-79
2022/09/06 00:52:27;;;;;;;4.60;3.72;;;19.00;99.90;;;;;;4983606;28;20042;-78
2022/09/06 00:54:54;;;;;;;4.78;3.65;;;19.00;99.90;;;;;;5006280;28;20048;-78
2022/09/06 00:57:20;;;;;;;4.65;3.70;;;19.00;99.90;;;;;;4973563;28;20038;-79
2022/09/06 00:59:46;;;;;;;5.25;3.72;;;19.00;99.90;;;;;;5005810;28;20067;-79
2022/09/06 01:02:12;;;;;;;3.97;3.47;;;19.00;99.90;;;;;;5002851;28;20045;-79
2022/09/06 01:04:42;;;;;;;3.72;3.42;;;19.00;99.90;;;;;;5012371;28;20038;-78
2022/09/06 01:07:40;;;;;;;4.63;3.90;;;19.00;99.90;;;;;;5030422;28;20475;-78
2022/09/06 01:10:17;;;;;;;6.45;4.18;;;19.00;99.90;;;;;;4996536;28;20054;-79
2022/09/06 01:13:12;;;;;;;4.53;3.75;;;19.00;99.90;;;;;;4982165;28;20475;-78
2022/09/06 01:16:11;;;;;;;3.88;3.47;;;19.00;99.90;;;;;;4997638;28;20533;-79
2022/09/06 01:19:09;;;;;;;4.90;3.80;;;19.10;99.90;;;;;;4999926;28;20038;-79
2022/09/06 01:21:56;;;;;;;4.85;4.25;;;19.10;99.90;;;;;;4973172;28;20568;-79
2022/09/06 01:24:43;;;;;;;5.85;4.45;;;19.10;99.90;;;;;;4999136;28;20064;-78
2022/09/06 01:27:36;;;;;;;6.00;3.75;;;19.10;99.90;;;;;;5010160;28;20076;-79
2022/09/06 01:30:10;;;;;;;5.95;3.78;;;19.10;99.90;;;;;;5011846;28;20141;-78
2022/09/06 01:32:52;;;;;;;4.85;3.97;;;19.10;99.90;;;;;;5020086;28;20562;-79
2022/09/06 01:35:37;;;;;;;5.72;4.18;;;19.00;99.90;;;;;;4996944;28;20055;-78
2022/09/06 01:38:04;;;;;;;5.53;4.28;;;19.00;99.90;;;;;;5010088;28;20049;-78
2022/09/06 01:40:34;;;;;;;6.93;4.03;;;19.00;99.90;;;;;;5011812;28;20042;-79
2022/09/06 01:43:00;;;;;;;5.63;3.75;;;19.00;99.90;;;;;;5011827;28;20125;-78
2022/09/06 01:45:35;;;;;;;7.60;3.97;;;18.90;99.90;;;;;;5018028;28;20121;-78
2022/09/06 01:48:06;;;;;;;;;;;18.80;99.90;;;;;;5001394;28;20155;-79
2022/09/06 01:50:51;;;;;;;5.95;4.45;;;18.80;99.90;;;;;;5003677;28;20401;-78
2022/09/06 01:53:43;;;;;;;4.72;3.60;;;18.80;99.90;;;;;;5011825;28;20383;-78
2022/09/06 01:56:35;;;;;;;4.60;4.15;;;18.70;99.90;;;;;;5012021;28;20080;-78
2022/09/06 01:59:00;;;;;;;5.43;4.85;;;18.70;99.90;;;;;;5011435;28;20048;-79
2022/09/06 02:02:10;;;;;;;4.53;4.13;;;18.70;99.90;;;;;;5001593;28;20038;-78
2022/09/06 02:04:44;;;;;;;6.43;4.95;;;18.60;99.90;;;;;;5040012;28;20053;-79
2022/09/06 02:07:16;;;;;;;5.65;4.25;;;18.50;99.90;;;;;;4972612;28;20046;-79
2022/09/06 02:09:45;;;;;;;7.72;4.07;;;18.50;99.90;;;;;;4988920;28;20512;-79
2022/09/06 02:12:13;;;;;;;8.07;5.03;;;18.50;99.90;;;;;;4973498;28;20039;-78
2022/09/06 02:14:48;;;;;;;5.13;4.32;;;18.50;99.90;;;;;;4994824;28;20057;-78
2022/09/06 02:17:18;;;;;;;5.15;3.92;;;18.50;99.90;;;;;;5002711;28;20041;-79
2022/09/06 02:19:55;;;;;;;4.93;4.10;;;18.40;99.90;;;;;;5011015;28;20042;-79
2022/09/06 02:22:27;;;;;;;4.18;3.45;;;18.40;99.90;;;;;;5011382;28;20048;-79
2022/09/06 02:24:55;;;;;;;4.43;4.03;;;18.40;99.90;;;;;;5006485;28;20045;-79
2022/09/06 02:27:21;;;;;;;4.85;4.07;;;18.30;99.90;;;;;;4994817;28;20037;-79
2022/09/06 02:29:46;;;;;;;7.03;4.65;;;18.30;99.90;;;;;;5002786;28;20082;-79
2022/09/06 02:32:18;;;;;;;4.85;4.18;;;18.30;99.90;;;;;;5027678;28;20045;-78
2022/09/06 02:34:45;;;;;;;6.00;3.75;;;18.30;99.90;;;;;;5003697;28;20065;-79
2022/09/06 02:37:12;;;;;;;4.47;3.88;;;18.30;99.90;;;;;;5002960;28;20046;-79
2022/09/06 02:39:38;;;;;;;6.38;4.15;;;18.30;99.90;;;;;;5010975;28;20066;-79
2022/09/06 02:42:08;;;;;;;6.10;3.58;;;18.30;99.90;;;;;;4997167;28;20037;-79
2022/09/06 02:44:33;;;;;;;5.13;3.67;;;18.30;99.90;;;;;;4991329;28;20038;-79
2022/09/06 02:47:00;;;;;;;12.23;3.95;;;18.30;99.90;;;;;;4991775;28;20122;-79
2022/09/06 02:49:25;;;;;;;4.97;4.18;;;18.30;99.90;;;;;;4991143;28;20077;-79
2022/09/06 02:51:51;;;;;;;5.75;4.03;;;18.30;99.90;;;;;;4991297;28;20081;-79
2022/09/06 02:54:17;;;;;;;4.45;4.05;;;18.30;99.90;;;;;;4991369;28;20046;-79
2022/09/06 02:56:42;;;;;;;5.25;4.70;;;18.20;99.90;;;;;;4996400;28;20534;-78
2022/09/06 02:59:08;;;;;;;4.55;4.10;;;18.20;99.90;;;;;;4999318;28;20387;-79
2022/09/06 03:01:33;;;;;;;4.90;4.43;;;18.20;99.90;;;;;;5018261;28;20387;-79
2022/09/06 03:03:59;;;;;;;4.90;4.45;;;18.10;99.90;;;;;;5001609;28;20140;-78
2022/09/06 03:06:25;;;;;;;5.22;4.72;;;18.10;99.90;;;;;;5008586;28;20038;-78
2022/09/06 03:08:50;;;;;;;8.68;4.53;;;18.10;99.90;;;;;;4985730;28;20053;-79
2022/09/06 03:11:16;;;;;;;5.18;4.68;;;18.00;99.90;;;;;;5019652;28;20033;-79
2022/09/06 03:13:42;;;;;;;11.18;5.00;;;18.00;99.90;;;;;;5010388;28;20073;-78
2022/09/06 03:16:07;;;;;;;6.35;5.50;;;18.00;99.90;;;;;;5010318;28;20102;-79
2022/09/06 03:18:34;;;;;;;7.55;4.55;;;18.00;99.90;;;;;;5001674;28;20038;-78
2022/09/06 03:20:59;;;;;;;5.15;4.57;;;18.00;99.90;;;;;;4996967;28;20488;-79
2022/09/06 03:23:27;;;;;;;5.47;4.32;;;17.90;99.90;;;;;;5004106;28;20064;-78
2022/09/06 03:25:53;;;;;;;6.22;4.97;;;17.90;99.90;;;;;;5015284;28;20052;-79
2022/09/06 03:28:20;;;;;;;10.07;4.88;;;17.90;99.90;;;;;;5002721;28;20041;-79
2022/09/06 03:30:47;;;;;;;5.78;4.70;;;17.90;99.90;;;;;;5010602;28;20045;-79
2022/09/06 03:33:13;;;;;;;7.55;5.32;;;17.90;99.90;;;;;;5010573;28;20049;-79
2022/09/06 03:35:39;;;;;;;5.88;5.28;;;17.80;99.90;;;;;;5010598;28;20094;-78
2022/09/06 03:38:04;;;;;;;5.85;5.05;;;17.90;99.90;;;;;;5010993;28;20053;-78
2022/09/06 03:40:30;;;;;;;6.47;5.05;;;17.80;99.90;;;;;;5003267;28;20040;-79
2022/09/06 03:42:56;;;;;;;5.57;4.80;;;17.90;99.90;;;;;;4999258;28;20046;-78
2022/09/06 03:45:21;;;;;;;6.25;5.65;;;17.90;99.90;;;;;;4994560;28;20098;-78
2022/09/06 03:47:47;;;;;;;7.20;5.45;;;17.90;99.90;;;;;;4994587;28;20053;-78
2022/09/06 03:50:12;;;;;;;6.88;5.43;;;17.90;99.90;;;;;;4995816;28;20042;-79
2022/09/06 03:52:39;;;;;;;6.32;5.72;;;17.90;99.90;;;;;;4994506;28;20495;-78
2022/09/06 03:55:05;;;;;;;9.95;6.30;;;17.90;99.90;;;;;;5004452;28;20049;-78
2022/09/06 03:57:31;;;;;;;5.95;5.22;;;17.90;99.90;;;;;;4996315;28;20512;-78
2022/09/06 03:59:56;;;;;;;6.63;5.88;;;17.90;99.90;;;;;;4995005;28;20065;-78
2022/09/06 04:02:22;;;;;;;6.38;4.65;;;17.90;99.90;;;;;;5001851;28;20124;-78
2022/09/06 04:04:48;;;;;;;6.25;5.18;;;17.90;99.90;;;;;;4994488;28;20045;-79
2022/09/06 04:07:13;;;;;;;5.55;5.05;;;17.90;99.90;;;;;;5001396;28;20041;-78
2022/09/06 04:09:39;;;;;;;6.85;5.20;;;17.90;99.90;;;;;;5008405;28;20048;-78
2022/09/06 04:12:04;;;;;;;6.75;4.93;;;17.90;99.90;;;;;;4997128;28;20410;-78
2022/09/06 04:14:30;;;;;;;7.50;5.28;;;17.90;99.90;;;;;;5013621;28;20069;-78
2022/09/06 04:16:56;;;;;;;6.47;5.22;;;17.80;99.90;;;;;;5013315;28;20402;-78
2022/09/06 04:19:22;;;;;;;5.55;5.05;;;17.80;99.90;;;;;;5031175;28;20045;-78
2022/09/06 04:21:48;;;;;;;6.75;5.22;;;17.80;99.90;;;;;;5000809;28;20088;-78
2022/09/06 04:24:13;;;;;;;5.13;4.72;;;17.80;99.90;;;;;;5001539;28;20064;-78
2022/09/06 04:26:39;;;;;;;8.57;5.43;;;17.70;99.90;;;;;;4993893;28;20061;-79
2022/09/06 04:29:05;;;;;;;5.60;5.05;;;17.70;99.90;;;;;;4993932;28;20046;-78
2022/09/06 04:31:30;;;;;;;6.75;6.05;;;17.80;99.90;;;;;;4994004;28;20069;-78
2022/09/06 04:33:56;;;;;;;6.28;5.57;;;17.70;99.90;;;;;;4993572;28;20507;-79
2022/09/06 04:36:22;;;;;;;9.40;5.95;;;17.80;99.90;;;;;;4976066;28;20129;-78
2022/09/06 04:38:47;;;;;;;6.25;5.65;;;17.70;99.90;;;;;;5005364;28;20129;-78
2022/09/06 04:41:15;;;;;;;7.20;6.30;;;17.70;99.90;;;;;;5013312;28;20139;-79
2022/09/06 04:43:42;;;;;;;7.13;5.10;;;17.70;99.90;;;;;;4995509;28;20395;-79
2022/09/06 04:46:21;;;;;;;9.55;7.13;;;17.70;99.90;;;;;;5004559;28;20188;-79
2022/09/06 04:48:47;;;;;;;7.40;5.50;;;17.70;99.90;;;;;;5003559;28;20045;-79
2022/09/06 04:51:13;;;;;;;6.32;5.72;;;17.70;99.90;;;;;;4993939;28;20136;-79
2022/09/06 04:53:39;;;;;;;8.73;6.95;;;17.70;99.90;;;;;;4993167;28;20420;-79
2022/09/06 04:56:05;;;;;;;7.50;5.85;;;17.70;99.90;;;;;;4992249;28;20392;-78
2022/09/06 04:58:31;;;;;;;14.60;6.03;;;17.70;99.90;;;;;;4981038;28;20053;-78
2022/09/06 05:00:56;;;;;;;6.43;5.72;;;17.80;99.90;;;;;;5009239;28;20077;-78
2022/09/06 05:03:22;;;;;;;6.55;5.88;;;17.80;99.90;;;;;;5022005;28;20069;-78
2022/09/06 05:05:48;;;;;;;6.22;5.63;;;17.80;99.90;;;;;;5012552;28;20097;-78
2022/09/06 05:08:14;;;;;;;9.38;6.03;;;17.80;99.90;;;;;;4999434;28;20033;-78
2022/09/06 05:10:39;;;;;;;6.93;5.57;;;17.80;99.90;;;;;;5005074;28;20081;-78
2022/09/06 05:13:05;;;;;;;7.43;6.38;;;17.90;99.90;;;;;;5031104;28;20111;-78
2022/09/06 05:15:30;;;;;;;6.43;5.82;;;17.90;99.90;;;;;;4997579;28;20037;-78
2022/09/06 05:18:03;;;;;;;7.13;6.43;;;17.90;99.90;;;;;;4999969;28;20030;-78
2022/09/06 05:20:30;;;;;;;7.40;6.63;;;18.00;99.90;;;;;;5007803;28;20068;-78
2022/09/06 05:22:55;;;;;;;8.15;7.45;;;18.00;99.90;;;;;;4993744;28;20034;-78
2022/09/06 05:25:21;;;;;;;10.57;8.02;;;18.10;99.90;;;;;;4976481;28;20106;-78
2022/09/06 05:27:47;;;;;;;8.13;7.38;;;18.10;99.90;;;;;;5009614;28;20049;-78
2022/09/06 05:30:13;;;;;;;7.72;6.95;;;18.20;99.90;;;;;;4978163;28;20061;-78
2022/09/06 05:32:39;;;;;;;9.70;7.30;;;18.20;99.90;;;;;;4960377;28;20055;-78
2022/09/06 05:35:05;;;;;;;7.97;6.53;;;18.20;99.90;;;;;;4976397;28;20322;-78
2022/09/06 05:37:30;;;;;;;12.52;7.65;;;18.20;99.90;;;;;;4961216;28;20051;-78
2022/09/06 05:39:58;;;;;;;13.45;7.88;;;18.20;99.90;;;;;;4991830;28;20399;-78
2022/09/06 05:42:24;;;;;;;16.95;9.15;;;18.20;99.90;;;;;;4978141;28;20038;-78
2022/09/06 05:44:50;;;;;;;21.52;9.57;;;18.20;99.90;;;;;;4996230;28;20052;-79
2022/09/06 05:47:15;;;;;;;20.73;10.52;;;18.20;99.90;;;;;;5013468;28;20033;-79
2022/09/06 05:49:41;;;;;;;22.23;10.30;;;18.20;99.90;;;;;;4995515;28;20409;-79
2022/09/06 05:52:07;;;;;;;10.40;7.95;;;18.20;99.90;;;;;;4980518;28;20045;-80
2022/09/06 05:54:32;;;;;;;11.25;7.95;;;18.20;99.90;;;;;;4998562;28;20038;-82
2022/09/06 05:56:58;;;;;;;12.20;8.85;;;18.20;99.90;;;;;;4997550;28;20049;-81
2022/09/06 05:59:23;;;;;;;9.30;8.40;;;18.20;99.90;;;;;;4992504;28;20148;-81
2022/09/06 06:01:51;;;;;;;10.73;8.95;;;18.10;99.90;;;;;;4977053;28;20042;-81
2022/09/06 06:04:17;;;;;;;14.05;9.77;;;18.10;99.90;;;;;;4993519;28;20095;-80
2022/09/06 06:06:45;;;;;;;13.48;10.35;;;18.10;99.90;;;;;;4998564;28;20057;-79
2022/09/06 06:09:10;;;;;;;12.20;10.00;;;18.10;99.90;;;;;;4998664;28;20474;-79
2022/09/06 06:11:36;;;;;;;10.63;9.52;;;18.10;99.90;;;;;;5014903;28;20030;-78
2022/09/06 06:14:03;;;;;;;12.70;10.30;;;18.20;99.90;;;;;;4979389;28;20514;-78
2022/09/06 06:16:29;;;;;;;10.75;9.80;;;18.10;99.90;;;;;;4993627;28;20512;-78
2022/09/06 06:18:55;;;;;;;11.63;10.52;;;18.10;99.90;;;;;;4990985;28;20042;-77
2022/09/06 06:21:23;;;;;;;10.02;9.13;;;18.10;99.90;;;;;;4991724;28;20034;-77
2022/09/06 06:23:51;;;;;;;12.52;11.13;;;18.10;99.90;;;;;;4991754;28;20045;-77
2022/09/06 06:26:17;;;;;;;13.30;10.38;;;18.10;99.90;;;;;;4991691;28;20403;-77
2022/09/06 06:28:42;;;;;;;11.75;10.55;;;18.10;99.90;;;;;;4991624;28;20041;-76
2022/09/06 06:31:10;;;;;;;13.88;11.60;;;18.20;99.90;;;;;;4991263;28;20385;-76
2022/09/06 06:33:37;;;;;;;13.07;11.30;;;18.30;99.90;;;;;;4991256;28;20053;-77
2022/09/06 06:36:12;;;;;;;12.18;10.23;;;18.30;99.90;;;;;;4991369;28;20041;-77
2022/09/06 06:38:39;;;;;;;13.82;12.05;;;18.30;99.90;;;;;;4989695;28;20129;-77
2022/09/06 06:41:07;;;;;;;13.45;11.50;;;18.30;99.90;;;;;;4975002;28;20038;-77
2022/09/06 06:43:36;;;;;;;13.23;11.82;;;18.30;99.90;;;;;;4991986;28;20057;-76
2022/09/06 06:46:10;;;;;;;12.55;10.98;;;18.30;99.90;;;;;;4991114;28;20041;-76
2022/09/06 06:48:39;;;;;;;13.03;11.83;;;18.30;99.90;;;;;;4991358;28;20126;-77
2022/09/06 06:51:05;;;;;;;14.82;11.15;;;18.40;99.90;;;;;;4991217;28;20046;-77
2022/09/06 06:53:31;;;;;;;13.55;12.15;;;18.40;99.90;;;;;;4990279;28;20087;-76
2022/09/06 06:55:57;;;;;;;17.58;11.10;;;18.50;99.90;;;;;;4990455;28;20042;-76
2022/09/06 06:58:23;;;;;;;15.88;12.23;;;18.50;99.90;;;;;;4991434;28;20087;-76
2022/09/06 07:00:49;;;;;;;12.13;10.23;;;18.60;99.90;;;;;;5008538;28;20500;-76
2022/09/06 07:03:14;;;;;;;14.63;11.45;;;18.80;99.90;;;;;;4991272;28;20057;-76
2022/09/06 07:05:45;;;;;;;11.32;10.18;;;18.90;99.90;;;;;;4991301;28;20552;-76
2022/09/06 07:08:11;;;;;;;12.38;11.07;;;19.10;99.90;;;;;;4991095;28;20505;-76
2022/09/06 07:10:36;;;;;;;13.48;12.10;;;19.30;99.90;;;;;;4991033;28;20073;-77
2022/09/06 07:13:02;;;;;;;13.52;12.13;;;19.40;99.90;;;;;;5003050;28;20207;-78
2022/09/06 07:15:28;;;;;;;13.70;11.52;;;19.50;99.90;;;;;;5008352;28;20049;-77
2022/09/06 07:17:55;;;;;;;13.23;12.02;;;19.40;99.90;;;;;;4990673;28;20449;-76
2022/09/06 07:20:21;;;;;;;15.55;12.48;;;19.40;99.90;;;;;;4990281;28;20495;-77
2022/09/06 07:22:56;;;;;;;13.73;12.27;;;19.40;99.90;;;;;;4990778;28;20057;-77
2022/09/06 07:25:22;;;;;;;13.05;11.85;;;19.30;99.90;;;;;;4990747;28;20053;-74
2022/09/06 07:27:48;;;;;;;14.52;13.02;;;19.20;99.90;;;;;;4988746;28;20050;-74
2022/09/06 07:30:13;;;;;;;16.73;12.63;;;19.10;99.90;;;;;;4990484;28;20064;-74
2022/09/06 07:32:39;;;;;;;18.95;13.23;;;19.10;99.90;;;;;;4990932;28;20404;-74
2022/09/06 07:35:05;;;;;;;14.02;12.68;;;19.10;99.90;;;;;;4990468;28;20487;-74
2022/09/06 07:37:30;;;;;;;14.32;12.95;;;19.00;99.90;;;;;;4990647;28;20037;-74
2022/09/06 07:39:56;;;;;;;15.68;14.00;;;19.10;99.90;;;;;;4990413;28;20114;-74
2022/09/06 07:42:22;;;;;;;14.07;12.73;;;19.10;99.90;;;;;;4988488;28;20046;-74
2022/09/06 07:44:47;;;;;;;14.50;12.70;;;19.20;99.90;;;;;;4990750;28;20081;-76
2022/09/06 07:47:14;;;;;;;13.52;12.20;;;19.20;99.90;;;;;;4990854;28;20517;-77
2022/09/06 07:49:40;;;;;;;12.63;11.52;;;19.20;99.90;;;;;;5007753;28;20037;-76
2022/09/06 07:52:05;;;;;;;13.10;11.95;;;19.30;99.90;;;;;;4990749;28;20082;-76
2022/09/06 07:54:31;;;;;;;13.57;12.18;;;19.40;99.90;;;;;;4973998;28;20556;-76
2022/09/06 07:56:56;;;;;;;12.90;11.70;;;19.80;99.90;;;;;;4990531;28;20075;-76
2022/09/06 07:59:22;;;;;;;13.35;12.05;;;20.10;99.90;;;;;;4988425;28;20038;-76
2022/09/06 08:01:48;;;;;;;12.55;11.25;;;20.10;99.90;;;;;;4990222;28;20433;-76
2022/09/06 08:04:14;;;;;;;14.40;12.95;;;20.10;99.90;;;;;;4990189;28;20418;-76
2022/09/06 08:06:50;;;;;;;15.65;12.55;;;20.00;99.90;;;;;;4990403;28;20042;-76
2022/09/06 08:09:16;;;;;;;13.27;11.98;;;20.30;99.90;;;;;;4989942;28;20049;-77
2022/09/06 08:11:42;;;;;;;14.80;12.93;;;20.50;99.90;;;;;;4990400;28;20118;-76
2022/09/06 08:14:09;;;;;;;12.70;11.50;;;20.70;99.90;;;;;;4988575;28;20472;-76
2022/09/06 08:16:37;;;;;;;13.80;12.43;;;20.90;99.90;;;;;;4990473;28;20054;-76
2022/09/06 08:19:07;;;;;;;13.73;12.30;;;21.00;99.90;;;;;;4990320;28;20514;-77
2022/09/06 08:21:33;;;;;;;11.82;10.70;;;21.40;99.90;;;;;;4990046;28;20050;-76
2022/09/06 08:24:05;;;;;;;13.85;12.27;;;21.60;99.90;;;;;;4990022;28;20046;-76
2022/09/06 08:26:33;;;;;;;10.85;9.40;;;21.70;99.90;;;;;;5007583;28;20488;-77
2022/09/06 08:29:07;;;;;;;10.85;9.85;;;22.00;99.90;;;;;;4988247;28;20155;-77
2022/09/06 08:31:35;;;;;;;10.43;9.43;;;22.30;99.90;;;;;;4992190;28;20049;-77
2022/09/06 08:34:01;;;;;;;14.63;10.30;;;22.60;99.90;;;;;;4977048;28;20359;-77
2022/09/06 08:36:30;;;;;;;20.13;10.88;;;22.90;99.90;;;;;;4992989;28;20476;-77
2022/09/06 08:38:57;;;;;;;13.15;10.45;;;23.10;99.90;;;;;;4992961;28;20133;-77
2022/09/06 08:41:44;;;;;;;11.13;9.80;;;23.30;99.90;;;;;;4993396;28;20125;-77
2022/09/06 08:44:46;;;;;;;10.77;9.38;;;23.50;99.90;;;;;;4991632;28;20048;-78
2022/09/06 08:47:14;;;;;;;11.35;10.20;;;23.70;99.90;;;;;;4993130;28;20042;-78
2022/09/06 08:49:45;;;;;;;12.13;8.30;;;24.00;99.90;;;;;;4991115;28;20068;-77
2022/09/06 08:52:21;;;;;;;9.70;8.80;;;24.10;99.90;;;;;;4993028;28;20090;-78
2022/09/06 08:55:02;;;;;;;9.88;8.57;;;24.30;99.90;;;;;;5010881;28;20073;-78
2022/09/06 08:57:37;;;;;;;9.63;8.73;;;24.50;99.90;;;;;;4992903;28;20048;-78
2022/09/06 09:00:10;;;;;;;10.07;8.55;;;24.50;99.90;;;;;;4990956;28;20077;-78
2022/09/06 09:02:54;;;;;;;9.68;8.68;;;24.60;99.90;;;;;;4993019;28;20124;-78
2022/09/06 09:05:40;;;;;;;8.90;8.00;;;24.70;99.90;;;;;;4992857;28;20052;-77
2022/09/06 09:08:46;;;;;;;10.45;8.95;;;24.80;99.90;;;;;;4992999;28;20060;-77
2022/09/06 09:11:21;;;;;;;8.30;7.57;;;25.10;99.90;;;;;;4982190;28;20061;-77
2022/09/06 09:13:54;;;;;;;10.15;8.98;;;25.30;99.90;;;;;;4991028;28;20046;-77
2022/09/06 09:16:20;;;;;;;10.23;8.25;;;25.40;99.90;;;;;;4992595;28;20042;-77
2022/09/06 09:18:50;;;;;;;9.55;7.68;;;25.60;99.90;;;;;;4992603;28;20176;-77
2022/09/06 09:21:20;;;;;;;13.25;9.80;;;25.90;99.90;;;;;;4992721;28;20042;-77
2022/09/06 09:23:52;;;;;;;10.25;8.82;;;26.20;99.10;;;;;;4992405;28;20053;-77
2022/09/06 09:26:19;;;;;;;8.50;7.60;;;26.40;98.10;;;;;;5010063;28;20042;-77
2022/09/06 09:29:21;;;;;;;11.23;8.77;;;26.50;97.90;;;;;;4990314;28;20057;-77
2022/09/06 09:31:52;;;;;;;7.18;6.05;;;26.30;96.60;;;;;;4930241;28;20140;-77
2022/09/06 09:34:32;;;;;;;8.57;7.78;;;26.10;96.90;;;;;;4979343;28;20093;-77
2022/09/06 09:37:16;;;;;;;9.60;7.55;;;25.80;97.10;;;;;;4992334;28;20057;-77
2022/09/06 09:39:42;;;;;;;11.50;8.02;;;25.80;97.00;;;;;;4992054;28;20065;-77
2022/09/06 09:42:08;;;;;;;21.35;7.70;;;25.70;97.70;;;;;;4991769;28;20061;-77
2022/09/06 09:44:40;;;;;;;9.25;8.15;;;25.70;97.90;;;;;;4984499;28;20038;-77
2022/09/06 09:47:31;;;;;;;8.55;6.65;;;25.70;97.50;;;;;;4973073;28;20101;-78
2022/09/06 09:49:57;;;;;;;10.02;7.70;;;25.80;96.70;;;;;;4972514;28;20068;-77
2022/09/06 09:52:29;;;;;;;9.23;6.60;;;25.90;96.80;;;;;;4972916;28;20069;-77
2022/09/06 09:54:59;;;;;;;9.60;6.68;;;25.80;96.10;;;;;;4972861;28;20064;-77
2022/09/06 09:57:25;;;;;;;10.38;7.30;;;25.80;95.90;;;;;;4972864;28;20132;-77
2022/09/06 09:59:56;;;;;;;8.70;7.80;;;25.80;96.00;;;;;;4973681;28;20564;-78
2022/09/06 10:02:40;;;;;;;7.13;6.43;;;26.00;96.30;;;;;;4972811;28;20078;-77
2022/09/06 10:05:17;;;;;;;8.70;7.90;;;26.20;95.50;;;;;;5005015;28;20038;-77
2022/09/06 10:07:52;;;;;;;8.98;7.75;;;26.40;95.10;;;;;;4972516;28;20286;-77
2022/09/06 10:10:22;;;;;;;8.68;7.90;;;26.70;94.80;;;;;;4972482;28;20149;-77
2022/09/06 10:12:48;;;;;;;11.68;8.27;;;26.80;93.80;;;;;;5005067;28;20069;-78
2022/09/06 10:15:33;;;;;;;28.23;10.68;;;26.90;94.30;;;;;;5004411;28;20046;-78
2022/09/06 10:17:59;;;;;;;10.98;8.68;;;27.00;92.90;;;;;;4972504;28;20050;-78
2022/09/06 10:20:41;;;;;;;8.27;7.43;;;27.00;93.40;;;;;;4972095;28;20056;-78
2022/09/06 10:23:23;;;;;;;8.85;7.93;;;26.90;92.40;;;;;;4972456;28;20103;-78
2022/09/06 10:25:58;;;;;;;21.52;10.68;;;27.00;92.40;;;;;;5004757;28;20126;-78
2022/09/06 10:28:27;;;;;;;8.95;7.43;;;27.40;92.10;;;;;;4988400;28;20042;-78
2022/09/06 10:31:30;;;;;;;7.75;6.85;;;27.70;91.40;;;;;;4972889;28;20389;-78
2022/09/06 10:34:19;;;;;;;7.72;6.55;;;27.90;89.70;;;;;;5004498;28;20049;-78
2022/09/06 10:37:00;;;;;;;12.27;6.78;;;27.70;89.50;;;;;;5004350;28;20078;-78
2022/09/06 10:39:56;;;;;;;6.88;6.13;;;27.70;90.30;;;;;;4971974;28;20038;-78
2022/09/06 10:42:41;;;;;;;7.82;6.18;;;27.80;89.20;;;;;;5004626;28;20297;-78
2022/09/06 10:45:31;;;;;;;26.30;9.60;;;27.80;89.00;;;;;;4975337;28;20061;-78
2022/09/06 10:48:03;;;;;;;8.50;6.35;;;28.00;87.00;;;;;;4991288;28;20053;-78
2022/09/06 10:50:52;;;;;;;7.50;5.47;;;28.10;87.30;;;;;;4991455;28;20085;-78
2022/09/06 10:53:27;;;;;;;6.78;6.10;;;28.30;86.40;;;;;;4990714;28;20103;-78
2022/09/06 10:56:02;;;;;;;;;;;28.10;85.50;;;;;;4991901;28;20094;-78
2022/09/06 10:58:33;;;;;;;5.63;5.13;;;28.00;83.50;;;;;;4975287;28;19940;-78
2022/09/06 11:00:58;;;;;;;4.35;3.95;;;28.10;84.40;;;;;;4973872;28;20098;-79
2022/09/06 11:03:30;;;;;;;5.38;4.93;;;28.30;83.30;;;;;;4985695;28;20041;-78
2022/09/06 11:06:03;;;;;;;7.03;3.67;;;28.30;82.10;;;;;;4991957;28;20449;-78
2022/09/06 11:08:58;;;;;;;4.00;3.53;;;28.20;81.30;;;;;;4991711;28;20057;-79
2022/09/06 11:11:34;;;;;;;6.47;5.15;;;28.20;80.10;;;;;;4991429;28;20054;-79
2022/09/06 11:14:06;;;;;;;6.55;5.25;;;28.20;81.30;;;;;;4989952;28;20121;-79
2022/09/06 11:16:40;;;;;;;5.65;4.95;;;28.30;80.50;;;;;;4987234;28;20443;-79
2022/09/06 11:19:43;;;;;;;5.20;4.57;;;28.50;80.70;;;;;;4971747;28;20042;-79
2022/09/06 11:22:45;;;;;;;4.88;4.32;;;28.40;80.20;;;;;;5005092;28;20060;-79
2022/09/06 11:25:40;;;;;;;5.57;5.07;;;28.50;80.30;;;;;;4972161;28;20400;-79
2022/09/06 11:28:11;;;;;;;6.00;5.40;;;28.60;79.00;;;;;;4973403;28;20525;-79
2022/09/06 11:30:44;;;;;;;8.00;7.18;;;28.60;80.40;;;;;;4971567;28;20046;-79
2022/09/06 11:33:25;;;;;;;14.88;6.70;;;28.80;79.40;;;;;;5004320;28;20061;-79
2022/09/06 11:35:52;;;;;;;6.20;5.70;;;29.10;79.10;;;;;;5004762;28;20044;-79
2022/09/06 11:38:25;;;;;;;7.05;6.00;;;29.50;79.10;;;;;;5004008;28;20046;-79
2022/09/06 11:41:01;;;;;;;9.23;6.10;;;29.60;77.10;;;;;;5003913;28;20046;-80
2022/09/06 11:43:48;;;;;;;8.63;6.05;;;29.50;76.70;;;;;;4972483;28;20093;-80
2022/09/06 11:46:32;;;;;;;7.85;7.05;;;29.80;76.60;;;;;;4971631;28;20054;-80
2022/09/06 11:49:06;;;;;;;5.65;5.15;;;30.00;73.60;;;;;;5004497;28;20057;-80
2022/09/06 11:51:41;;;;;;;5.80;5.20;;;29.90;74.30;;;;;;5004308;28;20089;-80
2022/09/06 11:54:21;;;;;;;9.57;5.32;;;29.80;73.30;;;;;;4971528;28;20172;-79
2022/09/06 11:57:08;;;;;;;6.65;5.35;;;29.80;73.70;;;;;;4971396;28;20039;-79
2022/09/06 11:59:43;;;;;;;6.15;4.82;;;30.20;72.60;;;;;;5003429;28;20052;-79
2022/09/06 12:02:27;;;;;;;;;;;30.60;70.90;;;;;;5004341;28;20048;-80
2022/09/06 12:05:16;;;;;;;15.77;5.83;;;30.50;69.70;;;;;;4972430;28;19918;-80
2022/09/06 12:08:23;;;;;;;6.97;4.55;;;30.80;69.50;;;;;;4980139;28;20115;-79
2022/09/06 12:10:54;;;;;;;13.50;6.15;;;31.00;68.30;;;;;;4974697;28;20056;-79
2022/09/06 12:13:40;;;;;;;26.48;6.25;;;31.20;68.60;;;;;;5008057;28;20053;-79
2022/09/06 12:16:07;;;;;;;5.28;3.72;;;31.50;66.50;;;;;;5007546;28;20049;-79
2022/09/06 12:18:42;;;;;;;12.90;4.68;;;31.50;65.90;;;;;;4974649;28;20050;-80
2022/09/06 12:21:38;;;;;;;3.40;3.10;;;31.60;64.20;;;;;;5007485;28;20233;-80
2022/09/06 12:24:06;;;;;;;6.68;2.88;;;31.40;63.10;;;;;;5007199;28;20054;-80
2022/09/06 12:26:51;;;;;;;4.57;3.92;;;31.30;64.90;;;;;;5008062;28;20407;-79
2022/09/06 12:29:26;;;;;;;6.68;3.70;;;31.50;63.10;;;;;;4980896;28;20492;-80
2022/09/06 12:32:02;;;;;;;14.93;5.57;;;31.40;63.30;;;;;;4993930;28;20476;-80
2022/09/06 12:34:30;;;;;;;4.60;3.00;;;31.60;63.50;;;;;;4994079;28;20408;-79
2022/09/06 12:37:08;;;;;;;13.55;3.80;;;31.90;62.00;;;;;;4994133;28;20048;-79
2022/09/06 12:39:34;;;;;;;10.27;3.75;;;32.10;61.50;;;;;;5009901;28;20044;-80
2022/09/06 12:42:03;;;;;;;13.63;3.28;;;32.40;61.00;;;;;;4993712;28;20053;-80
2022/09/06 12:44:36;;;;;;;9.82;4.10;;;32.60;59.90;;;;;;4993979;28;20049;-80
2022/09/06 12:47:11;;;;;;;13.52;3.10;;;32.90;59.20;;;;;;4993982;28;20504;-79
2022/09/06 12:49:37;;;;;;;4.65;2.28;;;33.00;58.10;;;;;;4993801;28;20088;-81
2022/09/06 12:52:12;;;;;;;2.83;2.60;;;33.00;57.80;;;;;;4978003;28;20148;-80
2022/09/06 12:54:44;;;;;;;3.15;1.90;;;33.20;56.40;;;;;;4994297;28;20361;-80
2022/09/06 12:57:20;;;;;;;2.15;1.30;;;33.00;56.70;;;;;;4977635;28;20049;-79
2022/09/06 12:59:48;;;;;;;5.13;1.67;;;33.00;55.80;;;;;;4992891;28;20513;-79
2022/09/06 13:02:19;;;;;;;2.25;1.20;;;33.00;56.00;;;;;;4992920;28;20054;-79
2022/09/06 13:04:50;;;;;;;4.00;1.77;;;33.00;54.90;;;;;;4992900;28;20049;-78